sensor_id;sensor_type;location;lat;lon;timestamp;P1;durP1;ratioP1;P2;durP2;ratioP2
75787;SDS011;64406;50.024;14.492;2022-10-31T00:00:19;83.82;;;28.92;;
75787;SDS011;64406;50.024;14.492;2022-10-31T00:03:05;85.45;;;28.52;;
75787;SDS011;64406;50.024;14.492;2022-10-31T00:05:31;72.47;;;29.27;;
75787;SDS011;64406;50.024;14.492;2022-10-31T00:07:56;92.07;;;29.02;;
75787;SDS011;64406;50.024;14.492;2022-10-31T00:10:21;148.35;;;28.73;;
75787;SDS011;64406;50.024;14.492;2022-10-31T00:12:47;66.65;;;26.33;;
75787;SDS011;64406;50.024;14.492;2022-10-31T00:15:12;124.38;;;27.15;;
75787;SDS011;64406;50.024;14.492;2022-10-31T00:17:38;154.57;;;28.25;;
75787;SDS011;64406;50.024;14.492;2022-10-31T00:20:03;72.97;;;23.58;;
75787;SDS011;64406;50.024;14.492;2022-10-31T00:22:29;84.13;;;24.70;;
75787;SDS011;64406;50.024;14.492;2022-10-31T00:24:55;105.47;;;25.52;;
75787;SDS011;64406;50.024;14.492;2022-10-31T00:27:20;64.22;;;26.02;;
75787;SDS011;64406;50.024;14.492;2022-10-31T00:29:46;64.35;;;25.92;;
75787;SDS011;64406;50.024;14.492;2022-10-31T00:32:11;71.13;;;26.73;;
75787;SDS011;64406;50.024;14.492;2022-10-31T00:34:37;64.38;;;25.10;;
75787;SDS011;64406;50.024;14.492;2022-10-31T00:37:02;58.33;;;25.85;;
75787;SDS011;64406;50.024;14.492;2022-10-31T00:39:28;70.63;;;25.90;;
75787;SDS011;64406;50.024;14.492;2022-10-31T00:41:53;65.65;;;27.05;;
75787;SDS011;64406;50.024;14.492;2022-10-31T00:44:19;95.85;;;30.08;;
75787;SDS011;64406;50.024;14.492;2022-10-31T00:46:44;144.55;;;31.25;;
75787;SDS011;64406;50.024;14.492;2022-10-31T00:49:09;128.15;;;35.72;;
75787;SDS011;64406;50.024;14.492;2022-10-31T00:51:35;115.22;;;33.58;;
75787;SDS011;64406;50.024;14.492;2022-10-31T00:54:00;116.25;;;32.05;;
75787;SDS011;64406;50.024;14.492;2022-10-31T00:56:26;157.65;;;39.25;;
75787;SDS011;64406;50.024;14.492;2022-10-31T00:58:51;115.78;;;36.67;;
75787;SDS011;64406;50.024;14.492;2022-10-31T01:01:17;80.38;;;30.52;;
75787;SDS011;64406;50.024;14.492;2022-10-31T01:03:42;79.70;;;25.73;;
75787;SDS011;64406;50.024;14.492;2022-10-31T01:06:09;96.28;;;30.20;;
75787;SDS011;64406;50.024;14.492;2022-10-31T01:08:37;117.28;;;28.98;;
75787;SDS011;64406;50.024;14.492;2022-10-31T01:13:39;99.93;;;27.15;;
75787;SDS011;64406;50.024;14.492;2022-10-31T01:16:05;75.47;;;25.95;;
75787;SDS011;64406;50.024;14.492;2022-10-31T01:18:31;59.65;;;24.58;;
75787;SDS011;64406;50.024;14.492;2022-10-31T01:21:19;36.42;;;21.10;;
75787;SDS011;64406;50.024;14.492;2022-10-31T01:23:45;60.22;;;25.42;;
75787;SDS011;64406;50.024;14.492;2022-10-31T01:26:15;75.47;;;26.58;;
75787;SDS011;64406;50.024;14.492;2022-10-31T01:28:49;66.57;;;24.67;;
75787;SDS011;64406;50.024;14.492;2022-10-31T01:31:23;64.32;;;24.83;;
75787;SDS011;64406;50.024;14.492;2022-10-31T01:33:51;83.43;;;26.98;;
75787;SDS011;64406;50.024;14.492;2022-10-31T01:36:21;46.47;;;24.42;;
75787;SDS011;64406;50.024;14.492;2022-10-31T01:38:48;55.67;;;25.30;;
75787;SDS011;64406;50.024;14.492;2022-10-31T01:41:16;87.55;;;27.55;;
75787;SDS011;64406;50.024;14.492;2022-10-31T01:43:48;81.53;;;27.38;;
75787;SDS011;64406;50.024;14.492;2022-10-31T01:46:15;57.72;;;25.42;;
75787;SDS011;64406;50.024;14.492;2022-10-31T01:48:44;52.05;;;24.73;;
75787;SDS011;64406;50.024;14.492;2022-10-31T01:51:11;78.68;;;26.30;;
75787;SDS011;64406;50.024;14.492;2022-10-31T01:53:39;77.38;;;26.20;;
75787;SDS011;64406;50.024;14.492;2022-10-31T01:56:06;85.53;;;26.60;;
75787;SDS011;64406;50.024;14.492;2022-10-31T01:58:32;107.35;;;26.67;;
75787;SDS011;64406;50.024;14.492;2022-10-31T02:00:59;96.78;;;24.77;;
75787;SDS011;64406;50.024;14.492;2022-10-31T02:03:26;90.70;;;24.92;;
75787;SDS011;64406;50.024;14.492;2022-10-31T02:05:54;55.40;;;23.05;;
75787;SDS011;64406;50.024;14.492;2022-10-31T02:08:23;94.18;;;22.33;;
75787;SDS011;64406;50.024;14.492;2022-10-31T02:10:52;178.07;;;28.10;;
75787;SDS011;64406;50.024;14.492;2022-10-31T02:13:19;174.73;;;27.30;;
75787;SDS011;64406;50.024;14.492;2022-10-31T02:15:47;149.95;;;23.40;;
75787;SDS011;64406;50.024;14.492;2022-10-31T02:18:14;163.55;;;25.05;;
75787;SDS011;64406;50.024;14.492;2022-10-31T02:23:42;120.38;;;22.63;;
75787;SDS011;64406;50.024;14.492;2022-10-31T02:32:17;107.25;;;22.33;;
75787;SDS011;64406;50.024;14.492;2022-10-31T02:38:14;59.08;;;21.50;;
75787;SDS011;64406;50.024;14.492;2022-10-31T02:40:51;78.93;;;21.50;;
75787;SDS011;64406;50.024;14.492;2022-10-31T02:43:48;48.13;;;20.65;;
75787;SDS011;64406;50.024;14.492;2022-10-31T02:46:38;64.70;;;22.23;;
75787;SDS011;64406;50.024;14.492;2022-10-31T02:52:21;71.05;;;19.60;;
75787;SDS011;64406;50.024;14.492;2022-10-31T02:54:50;41.28;;;19.08;;
75787;SDS011;64406;50.024;14.492;2022-10-31T02:57:17;88.88;;;22.45;;
75787;SDS011;64406;50.024;14.492;2022-10-31T02:59:49;59.53;;;19.38;;
75787;SDS011;64406;50.024;14.492;2022-10-31T03:02:29;62.20;;;18.10;;
75787;SDS011;64406;50.024;14.492;2022-10-31T03:05:03;49.65;;;18.35;;
75787;SDS011;64406;50.024;14.492;2022-10-31T03:10:58;84.03;;;22.10;;
75787;SDS011;64406;50.024;14.492;2022-10-31T03:16:07;75.78;;;20.33;;
75787;SDS011;64406;50.024;14.492;2022-10-31T03:19:00;66.80;;;19.45;;
75787;SDS011;64406;50.024;14.492;2022-10-31T03:21:32;56.45;;;18.92;;
75787;SDS011;64406;50.024;14.492;2022-10-31T03:24:09;85.40;;;20.70;;
75787;SDS011;64406;50.024;14.492;2022-10-31T03:26:37;74.38;;;21.33;;
75787;SDS011;64406;50.024;14.492;2022-10-31T03:29:07;69.05;;;18.70;;
75787;SDS011;64406;50.024;14.492;2022-10-31T03:31:36;53.85;;;19.38;;
75787;SDS011;64406;50.024;14.492;2022-10-31T03:34:07;54.28;;;18.77;;
75787;SDS011;64406;50.024;14.492;2022-10-31T03:36:34;75.85;;;21.25;;
75787;SDS011;64406;50.024;14.492;2022-10-31T03:39:02;65.43;;;18.52;;
75787;SDS011;64406;50.024;14.492;2022-10-31T03:41:32;72.15;;;17.92;;
75787;SDS011;64406;50.024;14.492;2022-10-31T03:44:03;65.78;;;18.50;;
75787;SDS011;64406;50.024;14.492;2022-10-31T03:46:33;40.47;;;16.60;;
75787;SDS011;64406;50.024;14.492;2022-10-31T03:48:59;45.38;;;19.15;;
75787;SDS011;64406;50.024;14.492;2022-10-31T03:54:02;77.15;;;21.15;;
75787;SDS011;64406;50.024;14.492;2022-10-31T03:56:36;100.65;;;21.23;;
75787;SDS011;64406;50.024;14.492;2022-10-31T03:59:06;89.55;;;19.80;;
75787;SDS011;64406;50.024;14.492;2022-10-31T04:01:37;93.90;;;20.10;;
75787;SDS011;64406;50.024;14.492;2022-10-31T04:04:07;67.70;;;21.75;;
75787;SDS011;64406;50.024;14.492;2022-10-31T04:06:34;96.07;;;22.58;;
75787;SDS011;64406;50.024;14.492;2022-10-31T04:09:04;81.68;;;21.33;;
75787;SDS011;64406;50.024;14.492;2022-10-31T04:11:34;219.27;;;32.58;;
75787;SDS011;64406;50.024;14.492;2022-10-31T04:14:04;108.15;;;23.95;;
75787;SDS011;64406;50.024;14.492;2022-10-31T04:16:31;188.32;;;26.88;;
75787;SDS011;64406;50.024;14.492;2022-10-31T04:18:56;82.10;;;20.77;;
75787;SDS011;64406;50.024;14.492;2022-10-31T04:21:29;82.63;;;20.25;;
75787;SDS011;64406;50.024;14.492;2022-10-31T04:23:55;68.93;;;18.37;;
75787;SDS011;64406;50.024;14.492;2022-10-31T04:26:21;79.85;;;17.52;;
75787;SDS011;64406;50.024;14.492;2022-10-31T04:28:46;164.23;;;22.77;;
75787;SDS011;64406;50.024;14.492;2022-10-31T04:31:12;144.52;;;24.83;;
75787;SDS011;64406;50.024;14.492;2022-10-31T04:33:39;119.50;;;24.00;;
75787;SDS011;64406;50.024;14.492;2022-10-31T04:36:04;114.07;;;24.40;;
75787;SDS011;64406;50.024;14.492;2022-10-31T04:38:30;120.47;;;25.55;;
75787;SDS011;64406;50.024;14.492;2022-10-31T04:40:55;133.88;;;26.63;;
75787;SDS011;64406;50.024;14.492;2022-10-31T04:43:21;158.90;;;29.48;;
75787;SDS011;64406;50.024;14.492;2022-10-31T04:45:47;134.23;;;26.35;;
75787;SDS011;64406;50.024;14.492;2022-10-31T04:48:12;106.88;;;26.05;;
75787;SDS011;64406;50.024;14.492;2022-10-31T04:50:38;188.57;;;28.08;;
75787;SDS011;64406;50.024;14.492;2022-10-31T04:53:03;98.40;;;23.55;;
75787;SDS011;64406;50.024;14.492;2022-10-31T04:55:29;113.90;;;23.80;;
75787;SDS011;64406;50.024;14.492;2022-10-31T04:57:55;122.25;;;23.05;;
75787;SDS011;64406;50.024;14.492;2022-10-31T05:00:21;118.20;;;23.02;;
75787;SDS011;64406;50.024;14.492;2022-10-31T05:02:47;73.68;;;20.42;;
75787;SDS011;64406;50.024;14.492;2022-10-31T05:05:15;105.75;;;19.98;;
75787;SDS011;64406;50.024;14.492;2022-10-31T05:07:44;117.72;;;20.02;;
75787;SDS011;64406;50.024;14.492;2022-10-31T05:10:12;73.82;;;15.90;;
75787;SDS011;64406;50.024;14.492;2022-10-31T05:12:46;68.15;;;16.95;;
75787;SDS011;64406;50.024;14.492;2022-10-31T05:15:16;66.35;;;16.30;;
75787;SDS011;64406;50.024;14.492;2022-10-31T05:17:42;56.83;;;15.05;;
75787;SDS011;64406;50.024;14.492;2022-10-31T05:20:08;63.45;;;13.93;;
75787;SDS011;64406;50.024;14.492;2022-10-31T05:22:35;58.03;;;12.90;;
75787;SDS011;64406;50.024;14.492;2022-10-31T05:25:00;46.70;;;10.93;;
75787;SDS011;64406;50.024;14.492;2022-10-31T05:27:26;36.88;;;10.10;;
75787;SDS011;64406;50.024;14.492;2022-10-31T05:29:51;56.50;;;12.75;;
75787;SDS011;64406;50.024;14.492;2022-10-31T05:32:17;48.50;;;10.52;;
75787;SDS011;64406;50.024;14.492;2022-10-31T05:34:42;30.33;;;11.18;;
75787;SDS011;64406;50.024;14.492;2022-10-31T05:37:08;30.45;;;10.45;;
75787;SDS011;64406;50.024;14.492;2022-10-31T05:39:33;31.77;;;10.63;;
75787;SDS011;64406;50.024;14.492;2022-10-31T05:41:59;34.67;;;10.07;;
75787;SDS011;64406;50.024;14.492;2022-10-31T05:44:24;31.23;;;10.65;;
75787;SDS011;64406;50.024;14.492;2022-10-31T05:46:50;48.33;;;11.98;;
75787;SDS011;64406;50.024;14.492;2022-10-31T05:49:15;35.88;;;11.27;;
75787;SDS011;64406;50.024;14.492;2022-10-31T05:51:42;61.10;;;14.05;;
75787;SDS011;64406;50.024;14.492;2022-10-31T05:54:08;36.40;;;11.35;;
75787;SDS011;64406;50.024;14.492;2022-10-31T05:56:33;82.78;;;13.95;;
75787;SDS011;64406;50.024;14.492;2022-10-31T05:58:59;29.67;;;9.77;;
75787;SDS011;64406;50.024;14.492;2022-10-31T06:01:24;30.83;;;9.68;;
75787;SDS011;64406;50.024;14.492;2022-10-31T06:03:50;31.52;;;8.70;;
75787;SDS011;64406;50.024;14.492;2022-10-31T06:06:15;78.50;;;12.10;;
75787;SDS011;64406;50.024;14.492;2022-10-31T06:08:41;66.32;;;10.45;;
75787;SDS011;64406;50.024;14.492;2022-10-31T06:11:06;40.33;;;9.98;;
75787;SDS011;64406;50.024;14.492;2022-10-31T06:13:32;48.05;;;10.48;;
75787;SDS011;64406;50.024;14.492;2022-10-31T06:15:57;41.55;;;10.50;;
75787;SDS011;64406;50.024;14.492;2022-10-31T06:18:23;28.80;;;8.48;;
75787;SDS011;64406;50.024;14.492;2022-10-31T06:20:48;47.17;;;10.52;;
75787;SDS011;64406;50.024;14.492;2022-10-31T06:23:14;27.27;;;9.48;;
75787;SDS011;64406;50.024;14.492;2022-10-31T06:25:39;36.03;;;9.05;;
75787;SDS011;64406;50.024;14.492;2022-10-31T06:28:05;51.03;;;10.52;;
75787;SDS011;64406;50.024;14.492;2022-10-31T06:30:30;25.23;;;9.60;;
75787;SDS011;64406;50.024;14.492;2022-10-31T06:33:01;60.38;;;11.95;;
75787;SDS011;64406;50.024;14.492;2022-10-31T06:35:28;59.72;;;13.05;;
75787;SDS011;64406;50.024;14.492;2022-10-31T06:37:54;58.35;;;12.23;;
75787;SDS011;64406;50.024;14.492;2022-10-31T06:40:20;54.33;;;11.43;;
75787;SDS011;64406;50.024;14.492;2022-10-31T06:42:46;33.60;;;11.80;;
75787;SDS011;64406;50.024;14.492;2022-10-31T06:45:11;42.08;;;12.63;;
75787;SDS011;64406;50.024;14.492;2022-10-31T06:47:37;29.55;;;11.82;;
75787;SDS011;64406;50.024;14.492;2022-10-31T06:50:03;46.35;;;12.55;;
75787;SDS011;64406;50.024;14.492;2022-10-31T06:52:28;26.13;;;11.65;;
75787;SDS011;64406;50.024;14.492;2022-10-31T06:54:54;27.15;;;10.95;;
75787;SDS011;64406;50.024;14.492;2022-10-31T06:57:19;18.77;;;9.85;;
75787;SDS011;64406;50.024;14.492;2022-10-31T06:59:45;28.83;;;9.68;;
75787;SDS011;64406;50.024;14.492;2022-10-31T07:02:10;21.20;;;10.30;;
75787;SDS011;64406;50.024;14.492;2022-10-31T07:04:37;20.13;;;9.18;;
75787;SDS011;64406;50.024;14.492;2022-10-31T07:07:02;14.95;;;9.60;;
75787;SDS011;64406;50.024;14.492;2022-10-31T07:09:28;16.63;;;10.25;;
75787;SDS011;64406;50.024;14.492;2022-10-31T07:11:53;23.30;;;10.38;;
75787;SDS011;64406;50.024;14.492;2022-10-31T07:14:19;14.88;;;9.68;;
75787;SDS011;64406;50.024;14.492;2022-10-31T07:16:48;15.43;;;10.27;;
75787;SDS011;64406;50.024;14.492;2022-10-31T07:19:15;20.65;;;9.68;;
75787;SDS011;64406;50.024;14.492;2022-10-31T07:21:41;16.48;;;9.25;;
75787;SDS011;64406;50.024;14.492;2022-10-31T07:24:06;23.02;;;10.07;;
75787;SDS011;64406;50.024;14.492;2022-10-31T07:26:32;16.58;;;8.38;;
75787;SDS011;64406;50.024;14.492;2022-10-31T07:28:57;24.30;;;9.98;;
75787;SDS011;64406;50.024;14.492;2022-10-31T07:31:24;30.80;;;10.95;;
75787;SDS011;64406;50.024;14.492;2022-10-31T07:33:49;27.92;;;11.48;;
75787;SDS011;64406;50.024;14.492;2022-10-31T07:36:15;51.40;;;11.73;;
75787;SDS011;64406;50.024;14.492;2022-10-31T07:38:40;23.13;;;11.02;;
75787;SDS011;64406;50.024;14.492;2022-10-31T07:41:06;39.92;;;11.50;;
75787;SDS011;64406;50.024;14.492;2022-10-31T07:43:32;17.60;;;10.70;;
75787;SDS011;64406;50.024;14.492;2022-10-31T07:45:57;35.47;;;11.00;;
75787;SDS011;64406;50.024;14.492;2022-10-31T07:48:22;40.30;;;12.00;;
75787;SDS011;64406;50.024;14.492;2022-10-31T07:50:48;34.10;;;11.30;;
75787;SDS011;64406;50.024;14.492;2022-10-31T07:53:14;25.58;;;10.40;;
75787;SDS011;64406;50.024;14.492;2022-10-31T07:55:40;21.98;;;9.85;;
75787;SDS011;64406;50.024;14.492;2022-10-31T07:58:07;14.18;;;9.35;;
75787;SDS011;64406;50.024;14.492;2022-10-31T08:00:35;20.42;;;10.57;;
75787;SDS011;64406;50.024;14.492;2022-10-31T08:03:06;14.98;;;10.55;;
75787;SDS011;64406;50.024;14.492;2022-10-31T08:05:33;14.35;;;10.40;;
75787;SDS011;64406;50.024;14.492;2022-10-31T08:07:59;14.80;;;9.38;;
75787;SDS011;64406;50.024;14.492;2022-10-31T08:10:26;15.00;;;9.60;;
75787;SDS011;64406;50.024;14.492;2022-10-31T08:12:55;13.55;;;9.07;;
75787;SDS011;64406;50.024;14.492;2022-10-31T08:15:22;12.32;;;9.35;;
75787;SDS011;64406;50.024;14.492;2022-10-31T08:17:48;19.80;;;10.25;;
75787;SDS011;64406;50.024;14.492;2022-10-31T08:20:14;14.75;;;9.52;;
75787;SDS011;64406;50.024;14.492;2022-10-31T08:22:39;15.75;;;10.57;;
75787;SDS011;64406;50.024;14.492;2022-10-31T08:25:05;12.65;;;9.35;;
75787;SDS011;64406;50.024;14.492;2022-10-31T08:27:30;15.70;;;11.27;;
75787;SDS011;64406;50.024;14.492;2022-10-31T08:29:56;13.50;;;10.55;;
75787;SDS011;64406;50.024;14.492;2022-10-31T08:32:21;15.73;;;10.05;;
75787;SDS011;64406;50.024;14.492;2022-10-31T08:34:47;14.18;;;10.48;;
75787;SDS011;64406;50.024;14.492;2022-10-31T08:37:12;15.20;;;10.55;;
75787;SDS011;64406;50.024;14.492;2022-10-31T08:39:38;13.77;;;10.30;;
75787;SDS011;64406;50.024;14.492;2022-10-31T08:42:03;14.82;;;10.15;;
75787;SDS011;64406;50.024;14.492;2022-10-31T08:44:29;14.98;;;10.13;;
75787;SDS011;64406;50.024;14.492;2022-10-31T08:46:54;14.45;;;9.93;;
75787;SDS011;64406;50.024;14.492;2022-10-31T08:49:20;11.98;;;9.68;;
75787;SDS011;64406;50.024;14.492;2022-10-31T08:51:48;17.55;;;10.85;;
75787;SDS011;64406;50.024;14.492;2022-10-31T08:54:14;14.13;;;9.75;;
75787;SDS011;64406;50.024;14.492;2022-10-31T08:56:39;13.60;;;9.75;;
75787;SDS011;64406;50.024;14.492;2022-10-31T08:59:05;17.13;;;10.52;;
75787;SDS011;64406;50.024;14.492;2022-10-31T09:01:30;13.68;;;9.27;;
75787;SDS011;64406;50.024;14.492;2022-10-31T09:03:56;19.38;;;11.80;;
75787;SDS011;64406;50.024;14.492;2022-10-31T09:06:21;14.50;;;10.52;;
75787;SDS011;64406;50.024;14.492;2022-10-31T09:08:47;16.52;;;10.20;;
75787;SDS011;64406;50.024;14.492;2022-10-31T09:11:12;17.27;;;11.93;;
75787;SDS011;64406;50.024;14.492;2022-10-31T09:13:39;13.85;;;8.88;;
75787;SDS011;64406;50.024;14.492;2022-10-31T09:16:05;16.63;;;10.10;;
75787;SDS011;64406;50.024;14.492;2022-10-31T09:18:31;15.25;;;9.57;;
75787;SDS011;64406;50.024;14.492;2022-10-31T09:20:57;18.65;;;11.48;;
75787;SDS011;64406;50.024;14.492;2022-10-31T09:23:23;17.75;;;10.65;;
75787;SDS011;64406;50.024;14.492;2022-10-31T09:25:49;13.82;;;10.27;;
75787;SDS011;64406;50.024;14.492;2022-10-31T09:28:18;20.48;;;11.65;;
75787;SDS011;64406;50.024;14.492;2022-10-31T09:30:46;17.35;;;10.80;;
75787;SDS011;64406;50.024;14.492;2022-10-31T09:33:13;18.23;;;11.32;;
75787;SDS011;64406;50.024;14.492;2022-10-31T09:35:39;17.13;;;11.43;;
75787;SDS011;64406;50.024;14.492;2022-10-31T09:38:06;19.08;;;11.05;;
75787;SDS011;64406;50.024;14.492;2022-10-31T09:40:35;18.02;;;11.00;;
75787;SDS011;64406;50.024;14.492;2022-10-31T09:46:08;15.77;;;10.65;;
75787;SDS011;64406;50.024;14.492;2022-10-31T09:51:31;20.80;;;12.65;;
75787;SDS011;64406;50.024;14.492;2022-10-31T09:54:02;19.55;;;11.70;;
75787;SDS011;64406;50.024;14.492;2022-10-31T09:56:32;19.83;;;12.27;;
75787;SDS011;64406;50.024;14.492;2022-10-31T09:58:58;18.63;;;12.13;;
75787;SDS011;64406;50.024;14.492;2022-10-31T10:04:44;18.90;;;12.63;;
75787;SDS011;64406;50.024;14.492;2022-10-31T10:09:57;17.25;;;11.88;;
75787;SDS011;64406;50.024;14.492;2022-10-31T10:23:29;23.00;;;12.25;;
75787;SDS011;64406;50.024;14.492;2022-10-31T10:28:38;21.63;;;12.88;;
75787;SDS011;64406;50.024;14.492;2022-10-31T10:31:08;22.58;;;13.80;;
75787;SDS011;64406;50.024;14.492;2022-10-31T10:33:40;17.13;;;12.40;;
75787;SDS011;64406;50.024;14.492;2022-10-31T10:36:18;18.70;;;13.45;;
75787;SDS011;64406;50.024;14.492;2022-10-31T10:39:02;20.75;;;13.55;;
75787;SDS011;64406;50.024;14.492;2022-10-31T10:41:33;20.23;;;15.02;;
75787;SDS011;64406;50.024;14.492;2022-10-31T10:43:58;23.60;;;14.32;;
75787;SDS011;64406;50.024;14.492;2022-10-31T10:57:38;19.75;;;14.57;;
75787;SDS011;64406;50.024;14.492;2022-10-31T11:00:27;25.65;;;17.58;;
75787;SDS011;64406;50.024;14.492;2022-10-31T11:02:55;22.85;;;15.15;;
75787;SDS011;64406;50.024;14.492;2022-10-31T11:07:53;24.15;;;15.60;;
75787;SDS011;64406;50.024;14.492;2022-10-31T11:10:19;22.13;;;15.48;;
75787;SDS011;64406;50.024;14.492;2022-10-31T11:12:45;19.67;;;14.32;;
75787;SDS011;64406;50.024;14.492;2022-10-31T11:15:24;22.15;;;14.90;;
75787;SDS011;64406;50.024;14.492;2022-10-31T11:17:53;23.20;;;15.73;;
75787;SDS011;64406;50.024;14.492;2022-10-31T11:20:33;23.88;;;15.38;;
75787;SDS011;64406;50.024;14.492;2022-10-31T11:23:02;22.15;;;15.90;;
75787;SDS011;64406;50.024;14.492;2022-10-31T11:25:47;24.60;;;15.73;;
75787;SDS011;64406;50.024;14.492;2022-10-31T11:28:24;24.95;;;16.27;;
75787;SDS011;64406;50.024;14.492;2022-10-31T11:30:52;26.40;;;16.42;;
75787;SDS011;64406;50.024;14.492;2022-10-31T11:33:22;28.08;;;17.73;;
75787;SDS011;64406;50.024;14.492;2022-10-31T11:35:52;25.65;;;17.13;;
75787;SDS011;64406;50.024;14.492;2022-10-31T11:38:19;29.13;;;17.67;;
75787;SDS011;64406;50.024;14.492;2022-10-31T11:40:54;24.30;;;17.52;;
75787;SDS011;64406;50.024;14.492;2022-10-31T11:43:23;31.10;;;17.52;;
75787;SDS011;64406;50.024;14.492;2022-10-31T11:45:50;27.88;;;17.02;;
75787;SDS011;64406;50.024;14.492;2022-10-31T11:48:16;29.80;;;18.70;;
75787;SDS011;64406;50.024;14.492;2022-10-31T11:50:49;30.90;;;17.48;;
75787;SDS011;64406;50.024;14.492;2022-10-31T11:53:26;29.92;;;18.10;;
75787;SDS011;64406;50.024;14.492;2022-10-31T11:56:05;26.85;;;17.63;;
75787;SDS011;64406;50.024;14.492;2022-10-31T11:58:37;29.27;;;18.33;;
75787;SDS011;64406;50.024;14.492;2022-10-31T12:01:02;27.63;;;18.17;;
75787;SDS011;64406;50.024;14.492;2022-10-31T12:08:30;29.42;;;18.98;;
75787;SDS011;64406;50.024;14.492;2022-10-31T12:11:32;35.20;;;17.02;;
75787;SDS011;64406;50.024;14.492;2022-10-31T12:14:09;28.92;;;16.60;;
75787;SDS011;64406;50.024;14.492;2022-10-31T12:16:42;23.45;;;16.45;;
75787;SDS011;64406;50.024;14.492;2022-10-31T12:19:21;26.13;;;17.00;;
75787;SDS011;64406;50.024;14.492;2022-10-31T12:27:36;28.50;;;17.38;;
75787;SDS011;64406;50.024;14.492;2022-10-31T12:30:20;30.65;;;17.10;;
75787;SDS011;64406;50.024;14.492;2022-10-31T12:43:45;25.90;;;16.55;;
75787;SDS011;64406;50.024;14.492;2022-10-31T12:58:21;29.10;;;18.67;;
75787;SDS011;64406;50.024;14.492;2022-10-31T13:01:06;30.10;;;17.95;;
75787;SDS011;64406;50.024;14.492;2022-10-31T13:06:55;30.67;;;18.52;;
75787;SDS011;64406;50.024;14.492;2022-10-31T13:12:10;33.53;;;19.20;;
75787;SDS011;64406;50.024;14.492;2022-10-31T13:14:40;32.67;;;19.17;;
75787;SDS011;64406;50.024;14.492;2022-10-31T13:20:16;28.08;;;19.08;;
75787;SDS011;64406;50.024;14.492;2022-10-31T13:23:15;34.72;;;21.02;;
75787;SDS011;64406;50.024;14.492;2022-10-31T13:25:58;31.58;;;19.70;;
75787;SDS011;64406;50.024;14.492;2022-10-31T13:28:43;36.53;;;20.75;;
75787;SDS011;64406;50.024;14.492;2022-10-31T13:31:11;33.25;;;20.65;;
75787;SDS011;64406;50.024;14.492;2022-10-31T13:33:38;30.67;;;19.73;;
75787;SDS011;64406;50.024;14.492;2022-10-31T13:44:42;34.65;;;21.10;;
75787;SDS011;64406;50.024;14.492;2022-10-31T13:49:48;29.33;;;18.67;;
75787;SDS011;64406;50.024;14.492;2022-10-31T13:52:15;33.67;;;20.80;;
75787;SDS011;64406;50.024;14.492;2022-10-31T13:54:49;31.17;;;20.83;;
75787;SDS011;64406;50.024;14.492;2022-10-31T14:02:49;36.90;;;20.55;;
75787;SDS011;64406;50.024;14.492;2022-10-31T14:08:01;35.80;;;21.15;;
75787;SDS011;64406;50.024;14.492;2022-10-31T14:10:29;28.75;;;19.67;;
75787;SDS011;64406;50.024;14.492;2022-10-31T14:19:07;27.70;;;18.27;;
75787;SDS011;64406;50.024;14.492;2022-10-31T14:21:40;25.92;;;18.33;;
75787;SDS011;64406;50.024;14.492;2022-10-31T14:26:58;22.90;;;16.95;;
75787;SDS011;64406;50.024;14.492;2022-10-31T14:29:27;23.40;;;17.13;;
75787;SDS011;64406;50.024;14.492;2022-10-31T14:32:06;28.08;;;17.50;;
75787;SDS011;64406;50.024;14.492;2022-10-31T14:37:15;27.85;;;18.48;;
75787;SDS011;64406;50.024;14.492;2022-10-31T14:40:03;27.45;;;18.45;;
75787;SDS011;64406;50.024;14.492;2022-10-31T14:45:49;31.08;;;18.02;;
75787;SDS011;64406;50.024;14.492;2022-10-31T14:51:23;28.10;;;17.98;;
75787;SDS011;64406;50.024;14.492;2022-10-31T14:53:53;29.90;;;17.70;;
75787;SDS011;64406;50.024;14.492;2022-10-31T14:59:02;26.15;;;17.75;;
75787;SDS011;64406;50.024;14.492;2022-10-31T15:01:35;32.30;;;19.20;;
75787;SDS011;64406;50.024;14.492;2022-10-31T15:04:13;31.55;;;18.35;;
75787;SDS011;64406;50.024;14.492;2022-10-31T15:06:43;29.20;;;18.42;;
75787;SDS011;64406;50.024;14.492;2022-10-31T15:09:24;31.83;;;18.13;;
75787;SDS011;64406;50.024;14.492;2022-10-31T15:12:00;31.20;;;18.02;;
75787;SDS011;64406;50.024;14.492;2022-10-31T15:14:41;31.40;;;18.92;;
75787;SDS011;64406;50.024;14.492;2022-10-31T15:17:08;31.08;;;19.52;;
75787;SDS011;64406;50.024;14.492;2022-10-31T15:19:36;38.45;;;20.73;;
75787;SDS011;64406;50.024;14.492;2022-10-31T15:22:03;38.75;;;21.27;;
75787;SDS011;64406;50.024;14.492;2022-10-31T15:24:36;33.55;;;20.33;;
75787;SDS011;64406;50.024;14.492;2022-10-31T15:27:04;38.95;;;21.60;;
75787;SDS011;64406;50.024;14.492;2022-10-31T15:29:30;36.45;;;21.48;;
75787;SDS011;64406;50.024;14.492;2022-10-31T15:32:12;35.42;;;20.48;;
75787;SDS011;64406;50.024;14.492;2022-10-31T15:34:46;42.22;;;23.00;;
75787;SDS011;64406;50.024;14.492;2022-10-31T15:37:12;37.72;;;21.90;;
75787;SDS011;64406;50.024;14.492;2022-10-31T15:39:39;37.03;;;21.90;;
75787;SDS011;64406;50.024;14.492;2022-10-31T15:45:00;37.72;;;22.02;;
75787;SDS011;64406;50.024;14.492;2022-10-31T15:47:30;42.45;;;23.55;;
75787;SDS011;64406;50.024;14.492;2022-10-31T15:49:58;43.20;;;23.85;;
75787;SDS011;64406;50.024;14.492;2022-10-31T15:55:04;43.67;;;22.42;;
75787;SDS011;64406;50.024;14.492;2022-10-31T15:57:43;46.03;;;23.45;;
75787;SDS011;64406;50.024;14.492;2022-10-31T16:02:47;44.72;;;23.38;;
75787;SDS011;64406;50.024;14.492;2022-10-31T16:05:16;47.75;;;23.63;;
75787;SDS011;64406;50.024;14.492;2022-10-31T16:07:51;48.00;;;23.48;;
75787;SDS011;64406;50.024;14.492;2022-10-31T16:10:21;53.97;;;25.67;;
75787;SDS011;64406;50.024;14.492;2022-10-31T16:12:49;51.13;;;25.95;;
75787;SDS011;64406;50.024;14.492;2022-10-31T16:15:15;50.10;;;25.23;;
75787;SDS011;64406;50.024;14.492;2022-10-31T16:17:43;47.17;;;25.77;;
75787;SDS011;64406;50.024;14.492;2022-10-31T16:20:18;53.35;;;26.45;;
75787;SDS011;64406;50.024;14.492;2022-10-31T16:22:48;50.42;;;26.15;;
75787;SDS011;64406;50.024;14.492;2022-10-31T16:25:24;61.35;;;26.75;;
75787;SDS011;64406;50.024;14.492;2022-10-31T16:27:53;57.45;;;26.65;;
75787;SDS011;64406;50.024;14.492;2022-10-31T16:33:05;46.92;;;23.80;;
75787;SDS011;64406;50.024;14.492;2022-10-31T16:35:46;50.65;;;24.58;;
75787;SDS011;64406;50.024;14.492;2022-10-31T16:38:12;50.05;;;23.88;;
75787;SDS011;64406;50.024;14.492;2022-10-31T16:40:38;50.08;;;24.67;;
75787;SDS011;64406;50.024;14.492;2022-10-31T16:43:09;50.60;;;24.35;;
75787;SDS011;64406;50.024;14.492;2022-10-31T16:45:37;53.90;;;26.75;;
75787;SDS011;64406;50.024;14.492;2022-10-31T16:48:12;55.13;;;26.48;;
75787;SDS011;64406;50.024;14.492;2022-10-31T16:50:40;60.15;;;25.75;;
75787;SDS011;64406;50.024;14.492;2022-10-31T16:53:07;60.47;;;24.85;;
75787;SDS011;64406;50.024;14.492;2022-10-31T16:55:33;70.22;;;26.00;;
75787;SDS011;64406;50.024;14.492;2022-10-31T16:58:06;51.05;;;24.60;;